Time;durP1;ratioP1;P1;durP2;ratioP2;P2;SDS_P1;SDS_P2;PMS_P1;PMS_P2;Temp;Humidity;BMP_temperature;BMP_pressure;BME280_temperature;BME280_humidity;BME280_pressure;Samples;Min_cycle;Max_cycle;Signal;HPM_P1;HPM_P2
2023/10/20 00:00:33;;;;;;;0.85;0.75;;;13.60;99.90;;;;;;5050862;28;20032;-77
2023/10/20 00:02:59;;;;;;;0.75;0.55;;;13.50;99.90;;;;;;5049175;28;20032;-76
2023/10/20 00:05:26;;;;;;;0.30;0.30;;;13.60;99.90;;;;;;5038919;28;20047;-76
2023/10/20 00:07:53;;;;;;;0.50;0.50;;;13.50;99.90;;;;;;5053271;28;20376;-76
2023/10/20 00:10:21;;;;;;;0.28;0.28;;;13.60;99.90;;;;;;5053713;28;20056;-76
2023/10/20 00:12:47;;;;;;;0.32;0.32;;;13.50;99.90;;;;;;5051141;28;20028;-76
2023/10/20 00:15:13;;;;;;;0.65;0.47;;;13.50;99.90;;;;;;5053813;28;20482;-76
2023/10/20 00:17:41;;;;;;;0.55;0.55;;;13.50;99.90;;;;;;5037316;28;20029;-77
2023/10/20 00:20:09;;;;;;;0.95;0.85;;;13.50;99.90;;;;;;5051110;28;20020;-75
2023/10/20 00:22:35;;;;;;;0.98;0.45;;;13.50;99.90;;;;;;5054114;28;20024;-76
2023/10/20 00:25:02;;;;;;;1.50;0.40;;;13.50;99.90;;;;;;5036743;28;20052;-77
2023/10/20 00:27:28;;;;;;;3.15;1.60;;;13.60;99.90;;;;;;5034244;28;20041;-75
2023/10/20 00:29:55;;;;;;;3.60;0.90;;;13.60;99.90;;;;;;5042403;28;20055;-75
2023/10/20 00:32:22;;;;;;;1.23;1.13;;;13.60;99.90;;;;;;5032318;28;20056;-76
2023/10/20 00:34:48;;;;;;;1.70;1.58;;;13.60;99.90;;;;;;5038946;28;20385;-76
2023/10/20 00:37:14;;;;;;;1.30;0.47;;;13.60;99.90;;;;;;5047377;28;20272;-76
2023/10/20 00:39:41;;;;;;;0.20;0.20;;;13.70;99.90;;;;;;5046432;28;20461;-77
2023/10/20 00:42:08;;;;;;;1.85;0.80;;;13.60;99.90;;;;;;5027079;28;20056;-75
2023/10/20 00:44:34;;;;;;;0.60;0.60;;;13.60;99.90;;;;;;5053813;28;20025;-75
2023/10/20 00:47:00;;;;;;;1.75;1.65;;;13.60;99.90;;;;;;5020694;28;20132;-76
2023/10/20 00:49:26;;;;;;;1.08;0.65;;;13.60;99.90;;;;;;5061130;28;20024;-76
2023/10/20 00:51:53;;;;;;;2.00;1.05;;;13.60;99.90;;;;;;5042648;28;20123;-76
2023/10/20 00:54:20;;;;;;;6.78;1.55;;;13.70;99.90;;;;;;5050471;28;20039;-76
2023/10/20 00:56:47;;;;;;;0.30;0.30;;;13.70;99.90;;;;;;5023445;28;20041;-78
2023/10/20 00:59:13;;;;;;;0.88;0.82;;;13.80;99.90;;;;;;5037007;28;20064;-76
2023/10/20 01:01:39;;;;;;;4.93;1.30;;;13.80;99.90;;;;;;5037530;28;20048;-76
2023/10/20 01:04:06;;;;;;;2.00;1.58;;;13.80;99.90;;;;;;5046254;28;20026;-76
2023/10/20 01:06:35;;;;;;;3.08;1.30;;;13.80;99.90;;;;;;5053476;28;20039;-77
2023/10/20 01:09:01;;;;;;;0.57;0.57;;;13.80;99.90;;;;;;5032796;28;20037;-77
2023/10/20 01:11:27;;;;;;;4.80;1.50;;;13.80;99.90;;;;;;5053173;28;20041;-76
2023/10/20 01:13:53;;;;;;;0.88;0.88;;;13.80;99.90;;;;;;5052019;28;20033;-76
2023/10/20 01:16:20;;;;;;;1.60;1.42;;;13.80;99.90;;;;;;5049122;28;20045;-77
2023/10/20 01:18:46;;;;;;;2.75;1.92;;;13.80;99.90;;;;;;5058536;28;20032;-76
2023/10/20 01:21:12;;;;;;;4.07;2.40;;;13.80;99.90;;;;;;5046851;28;20048;-76
2023/10/20 01:23:39;;;;;;;1.10;0.98;;;13.80;99.90;;;;;;5051704;28;20036;-77
2023/10/20 01:26:07;;;;;;;1.75;1.48;;;13.80;99.90;;;;;;5046709;28;20041;-76
2023/10/20 01:28:34;;;;;;;0.60;0.60;;;13.80;99.90;;;;;;5057787;28;20025;-76
2023/10/20 01:31:00;;;;;;;0.93;0.93;;;13.80;99.90;;;;;;5050201;28;20397;-76
2023/10/20 01:33:26;;;;;;;1.77;1.48;;;13.80;99.90;;;;;;5045660;28;20036;-76
2023/10/20 01:35:52;;;;;;;0.73;0.43;;;13.70;99.90;;;;;;5047005;28;20346;-77
2023/10/20 01:38:18;;;;;;;1.73;1.48;;;13.70;99.90;;;;;;5052068;28;20049;-76
2023/10/20 01:40:45;;;;;;;1.23;1.13;;;13.70;99.90;;;;;;5043453;28;20037;-76
2023/10/20 01:43:11;;;;;;;2.05;1.67;;;13.70;99.90;;;;;;5050963;28;20040;-77
2023/10/20 01:45:37;;;;;;;1.38;1.27;;;13.70;99.90;;;;;;5043706;28;20466;-77
2023/10/20 01:48:04;;;;;;;5.28;1.50;;;13.70;99.90;;;;;;5042827;28;20037;-77
2023/10/20 01:50:30;;;;;;;2.78;1.88;;;13.70;99.90;;;;;;5039590;28;20048;-77
2023/10/20 01:52:56;;;;;;;1.38;1.27;;;13.70;99.90;;;;;;5054988;28;20129;-77
2023/10/20 01:55:22;;;;;;;1.10;0.93;;;13.70;99.90;;;;;;5036801;28;20071;-77
2023/10/20 01:57:50;;;;;;;4.13;1.95;;;13.70;99.90;;;;;;5042627;28;20025;-77
2023/10/20 02:00:17;;;;;;;2.35;1.45;;;13.70;99.90;;;;;;5019985;28;20473;-77
2023/10/20 02:02:43;;;;;;;1.02;0.95;;;13.70;99.90;;;;;;5034465;28;20036;-79
2023/10/20 02:05:10;;;;;;;1.48;0.52;;;13.70;99.90;;;;;;5035848;28;20052;-77
2023/10/20 02:07:37;;;;;;;3.58;1.55;;;13.70;99.90;;;;;;5036417;28;20025;-77
2023/10/20 02:10:06;;;;;;;0.68;0.65;;;13.60;99.90;;;;;;5042773;28;20036;-77
2023/10/20 02:12:33;;;;;;;0.55;0.55;;;13.60;99.90;;;;;;5049091;28;20045;-78
2023/10/20 02:14:59;;;;;;;2.75;1.55;;;13.60;99.90;;;;;;5031219;28;20045;-78
2023/10/20 02:17:26;;;;;;;2.55;2.10;;;13.60;99.90;;;;;;5050089;28;20041;-77
2023/10/20 02:19:52;;;;;;;1.27;1.13;;;13.60;99.90;;;;;;5048798;28;20044;-77
2023/10/20 02:22:18;;;;;;;5.60;1.50;;;13.60;99.90;;;;;;5044339;28;20044;-77
2023/10/20 02:24:45;;;;;;;4.68;2.33;;;13.60;99.90;;;;;;5047538;28;20043;-78
2023/10/20 02:27:11;;;;;;;2.25;1.08;;;13.60;99.90;;;;;;5032101;28;20267;-77
2023/10/20 02:29:37;;;;;;;2.30;1.95;;;13.60;99.90;;;;;;5033959;28;20051;-78
2023/10/20 02:32:04;;;;;;;1.02;1.02;;;13.60;99.90;;;;;;5038586;28;20044;-77
2023/10/20 02:34:31;;;;;;;1.13;0.90;;;13.60;99.90;;;;;;5054122;28;20040;-77
2023/10/20 02:36:58;;;;;;;1.20;1.20;;;13.50;99.90;;;;;;5030118;28;20056;-77
2023/10/20 02:39:24;;;;;;;1.08;0.82;;;13.50;99.90;;;;;;5044411;28;20036;-77
2023/10/20 02:41:50;;;;;;;0.47;0.47;;;13.50;99.90;;;;;;5042099;28;20484;-77
2023/10/20 02:44:16;;;;;;;1.98;0.75;;;13.50;99.90;;;;;;5052818;28;20028;-77
2023/10/20 02:46:43;;;;;;;1.08;0.98;;;13.50;99.90;;;;;;5037541;28;20037;-77
2023/10/20 02:49:10;;;;;;;3.92;0.75;;;13.50;99.90;;;;;;5047190;28;20041;-77
2023/10/20 02:51:36;;;;;;;2.75;1.15;;;13.50;99.90;;;;;;5042077;28;20096;-77
2023/10/20 02:54:03;;;;;;;1.88;1.77;;;13.50;99.90;;;;;;5049628;28;20041;-77
2023/10/20 02:56:29;;;;;;;0.68;0.52;;;13.40;99.90;;;;;;5051563;28;20071;-77
2023/10/20 02:58:55;;;;;;;1.38;1.27;;;13.40;99.90;;;;;;5035472;28;20032;-78
2023/10/20 03:01:23;;;;;;;0.95;0.63;;;13.40;99.90;;;;;;5037336;28;20496;-77
2023/10/20 03:03:49;;;;;;;1.17;0.90;;;13.40;99.90;;;;;;5047149;28;20047;-77
2023/10/20 03:06:16;;;;;;;1.15;1.05;;;13.40;99.90;;;;;;5049658;28;20451;-77
2023/10/20 03:08:43;;;;;;;1.95;1.85;;;13.40;99.90;;;;;;5048232;28;20044;-77
2023/10/20 03:11:09;;;;;;;2.53;2.22;;;13.40;99.90;;;;;;5051702;28;20039;-77
2023/10/20 03:13:35;;;;;;;0.93;0.82;;;13.40;99.90;;;;;;5044968;28;20070;-76
2023/10/20 03:16:01;;;;;;;3.67;1.92;;;13.40;99.90;;;;;;5049622;28;20645;-77
2023/10/20 03:18:28;;;;;;;1.23;0.77;;;13.40;99.90;;;;;;5051844;28;20389;-76
2023/10/20 03:20:57;;;;;;;2.75;1.92;;;13.40;99.90;;;;;;5047664;28;20390;-76
2023/10/20 03:23:24;;;;;;;1.85;1.75;;;13.40;99.90;;;;;;5026036;28;20048;-76
2023/10/20 03:25:50;;;;;;;1.25;0.70;;;13.40;99.90;;;;;;5053686;28;20041;-76
2023/10/20 03:28:16;;;;;;;3.35;1.98;;;13.40;99.90;;;;;;5049726;28;20040;-77
2023/10/20 03:30:43;;;;;;;0.73;0.65;;;13.40;99.90;;;;;;5033625;28;20049;-78
2023/10/20 03:33:12;;;;;;;1.77;1.67;;;13.30;99.90;;;;;;5026116;28;20060;-79
2023/10/20 03:35:39;;;;;;;1.27;1.15;;;13.30;99.90;;;;;;5048960;28;20037;-79
2023/10/20 03:38:09;;;;;;;1.38;1.27;;;13.30;99.90;;;;;;5051464;28;20741;-79
2023/10/20 03:40:42;;;;;;;2.38;1.48;;;13.30;99.90;;;;;;5045623;28;20041;-78
2023/10/20 03:43:11;;;;;;;2.65;0.98;;;13.30;99.90;;;;;;5032921;28;20041;-79
2023/10/20 03:45:49;;;;;;;0.55;0.43;;;13.40;99.90;;;;;;5025978;28;20037;-78
2023/10/20 03:48:15;;;;;;;2.95;1.23;;;13.40;99.90;;;;;;5052824;28;20029;-78
2023/10/20 03:50:43;;;;;;;4.60;1.50;;;13.40;99.90;;;;;;5044377;28;20512;-78
2023/10/20 03:53:22;;;;;;;1.58;1.17;;;13.40;99.90;;;;;;5047734;28;20481;-79
2023/10/20 03:56:06;;;;;;;0.77;0.77;;;13.30;99.90;;;;;;5030147;28;20049;-78
2023/10/20 03:58:34;;;;;;;1.45;0.90;;;13.40;99.90;;;;;;5041400;28;20382;-78
2023/10/20 04:01:01;;;;;;;5.43;2.72;;;13.40;99.90;;;;;;5036046;28;20070;-78
2023/10/20 04:03:31;;;;;;;1.33;0.70;;;13.30;99.90;;;;;;5049778;28;20386;-77
2023/10/20 04:05:58;;;;;;;1.35;0.98;;;13.30;99.90;;;;;;5048988;28;20494;-78
2023/10/20 04:08:24;;;;;;;1.08;1.00;;;13.30;99.90;;;;;;5025715;28;20034;-81
2023/10/20 04:10:58;;;;;;;1.55;1.30;;;13.30;99.90;;;;;;5033525;28;20048;-83
2023/10/20 04:13:24;;;;;;;3.92;1.85;;;13.30;99.90;;;;;;5038131;28;20042;-83
2023/10/20 04:15:52;;;;;;;0.95;0.77;;;13.30;99.90;;;;;;5051344;28;20032;-83
2023/10/20 04:18:19;;;;;;;2.72;1.45;;;13.30;99.90;;;;;;5034826;28;20049;-82
2023/10/20 04:20:48;;;;;;;2.83;1.38;;;13.30;99.90;;;;;;5050423;28;20045;-81
2023/10/20 04:23:16;;;;;;;1.02;0.47;;;13.30;99.90;;;;;;5047971;28;20051;-82
2023/10/20 04:25:53;;;;;;;0.85;0.77;;;13.30;99.90;;;;;;5012250;28;20063;-82
2023/10/20 04:28:42;;;;;;;1.75;0.98;;;13.30;99.90;;;;;;5021513;28;20044;-82
2023/10/20 04:58:57;;;;;;;0.75;0.73;;;13.20;99.90;;;;;;5015284;28;20092;-81
2023/10/20 05:01:30;;;;;;;0.77;0.63;;;13.30;99.90;;;;;;5043654;28;20065;-80
2023/10/20 05:04:09;;;;;;;0.70;0.50;;;13.20;99.90;;;;;;5055333;28;20065;-83
2023/10/20 05:06:43;;;;;;;1.00;0.90;;;13.30;99.90;;;;;;5019748;28;20044;-82
2023/10/20 05:09:13;;;;;;;0.43;0.43;;;13.30;99.90;;;;;;5016748;28;20056;-81
2023/10/20 05:11:40;;;;;;;0.47;0.47;;;13.40;99.90;;;;;;5037977;28;20115;-81
2023/10/20 05:14:06;;;;;;;0.90;0.85;;;13.40;99.90;;;;;;5043675;28;20280;-81
2023/10/20 05:16:35;;;;;;;0.63;0.63;;;13.40;99.90;;;;;;5051322;28;20033;-80
2023/10/20 05:19:05;;;;;;;1.13;0.98;;;13.40;99.90;;;;;;5048801;28;20040;-81
2023/10/20 05:21:33;;;;;;;0.98;0.88;;;13.40;99.90;;;;;;5038774;28;20040;-81
2023/10/20 05:24:06;;;;;;;2.10;1.25;;;13.40;99.90;;;;;;5044898;28;20029;-81
2023/10/20 05:26:32;;;;;;;0.30;0.30;;;13.40;99.90;;;;;;5027876;28;20042;-80
2023/10/20 05:28:59;;;;;;;0.98;0.88;;;13.40;99.90;;;;;;5023535;28;20041;-83
2023/10/20 05:31:26;;;;;;;0.65;0.65;;;13.40;99.90;;;;;;5049577;28;20048;-82
2023/10/20 05:33:55;;;;;;;1.23;1.08;;;13.40;99.90;;;;;;5036810;28;20032;-82
2023/10/20 05:36:22;;;;;;;0.40;0.40;;;13.30;99.90;;;;;;5055251;28;20049;-82
2023/10/20 05:38:48;;;;;;;0.70;0.70;;;13.30;99.90;;;;;;5057886;28;20385;-83
2023/10/20 05:41:14;;;;;;;0.45;0.35;;;13.30;99.90;;;;;;5048370;28;20049;-80
2023/10/20 05:43:43;;;;;;;0.70;0.65;;;13.30;99.90;;;;;;5011075;28;20124;-80
2023/10/20 05:46:17;;;;;;;0.38;0.38;;;13.30;99.90;;;;;;5042418;28;20033;-80
2023/10/20 05:48:44;;;;;;;1.10;0.63;;;13.30;99.90;;;;;;5035056;28;20139;-80
2023/10/20 05:51:11;;;;;;;3.08;1.42;;;13.30;99.90;;;;;;5054539;28;20387;-80
2023/10/20 05:53:37;;;;;;;0.55;0.45;;;13.30;99.90;;;;;;5040577;28;20049;-80
2023/10/20 05:56:04;;;;;;;0.30;0.20;;;13.20;99.90;;;;;;5047991;28;20458;-80
2023/10/20 05:58:32;;;;;;;0.55;0.55;;;13.30;99.90;;;;;;5024957;28;20037;-80
2023/10/20 06:01:11;;;;;;;0.28;0.28;;;13.30;99.90;;;;;;5051304;28;20041;-80
2023/10/20 06:03:40;;;;;;;0.55;0.55;;;13.30;99.90;;;;;;5027631;28;20055;-80
2023/10/20 06:06:06;;;;;;;1.25;1.10;;;13.30;99.90;;;;;;5017655;28;20048;-79
2023/10/20 06:08:33;;;;;;;2.13;0.85;;;13.30;99.90;;;;;;5017848;28;20032;-80
2023/10/20 06:11:03;;;;;;;0.38;0.38;;;13.30;99.90;;;;;;5045890;28;20056;-79
2023/10/20 06:13:35;;;;;;;0.30;0.30;;;13.30;99.90;;;;;;5050719;28;20067;-76
2023/10/20 06:16:09;;;;;;;0.32;0.32;;;13.30;99.90;;;;;;5051991;28;20446;-79
2023/10/20 06:18:36;;;;;;;0.20;0.20;;;13.40;99.90;;;;;;5028106;28;20040;-79
2023/10/20 06:21:04;;;;;;;0.65;0.65;;;13.40;99.90;;;;;;5029989;28;20044;-77
2023/10/20 06:23:31;;;;;;;2.28;1.30;;;13.40;99.90;;;;;;5055111;28;20033;-77
2023/10/20 06:25:58;;;;;;;1.40;0.17;;;13.50;99.90;;;;;;5024200;28;20043;-78
2023/10/20 06:28:25;;;;;;;1.13;0.85;;;13.50;99.90;;;;;;5035572;28;20048;-78
2023/10/20 06:30:51;;;;;;;1.65;1.08;;;13.50;99.90;;;;;;5058039;28;20029;-78
2023/10/20 06:33:17;;;;;;;0.30;0.30;;;13.50;99.90;;;;;;5045944;28;20040;-79
2023/10/20 06:35:53;;;;;;;0.40;0.40;;;13.50;99.90;;;;;;5025445;28;20048;-79
2023/10/20 06:41:22;;;;;;;0.38;0.35;;;13.50;99.90;;;;;;4998752;28;20092;-77
2023/10/20 06:43:48;;;;;;;0.10;0.10;;;13.50;99.90;;;;;;5047052;28;20045;-78
2023/10/20 06:46:15;;;;;;;0.57;0.57;;;13.40;99.90;;;;;;5041399;28;20056;-81
2023/10/20 06:48:41;;;;;;;0.43;0.43;;;13.40;99.90;;;;;;5045079;28;20045;-83
2023/10/20 06:51:07;;;;;;;0.30;0.30;;;13.40;99.90;;;;;;5057576;28;20063;-82
2023/10/20 06:53:34;;;;;;;0.10;0.10;;;13.40;99.90;;;;;;5054955;28;20461;-80
2023/10/20 06:56:05;;;;;;;0.70;0.52;;;13.40;99.90;;;;;;5050767;28;20075;-81
2023/10/20 06:58:31;;;;;;;2.53;1.10;;;13.40;99.90;;;;;;5053130;28;20057;-82
2023/10/20 07:00:57;;;;;;;0.65;0.63;;;13.50;99.90;;;;;;5051497;28;20029;-81
2023/10/20 07:03:25;;;;;;;1.80;0.85;;;13.50;99.90;;;;;;5014350;28;20044;-81
2023/10/20 07:05:52;;;;;;;0.60;0.60;;;13.50;99.90;;;;;;5029020;28;20055;-81
2023/10/20 07:08:18;;;;;;;1.67;0.95;;;13.50;99.90;;;;;;5035771;28;20257;-84
2023/10/20 07:10:45;;;;;;;1.38;0.32;;;13.50;99.90;;;;;;5068608;28;20017;-83
2023/10/20 07:13:11;;;;;;;0.77;0.77;;;13.50;99.90;;;;;;5047763;28;20033;-81
2023/10/20 07:15:40;;;;;;;0.30;0.20;;;13.50;99.90;;;;;;5041998;28;20355;-80
2023/10/20 07:18:06;;;;;;;0.88;0.45;;;13.50;99.90;;;;;;5035162;28;20048;-79
2023/10/20 07:20:33;;;;;;;0.35;0.35;;;13.50;99.90;;;;;;5036773;28;20033;-80
2023/10/20 07:23:00;;;;;;;1.88;0.70;;;13.50;99.90;;;;;;5044295;28;20064;-81
2023/10/20 07:25:29;;;;;;;0.55;0.55;;;13.50;99.90;;;;;;5015912;28;20063;-81
2023/10/20 07:27:55;;;;;;;0.10;0.10;;;13.50;99.90;;;;;;5025752;28;20401;-80
2023/10/20 07:30:21;;;;;;;0.73;0.70;;;13.60;99.90;;;;;;5026847;28;20048;-81
2023/10/20 07:32:49;;;;;;;0.93;0.93;;;13.60;99.90;;;;;;5034606;28;20056;-83
2023/10/20 07:35:16;;;;;;;0.77;0.57;;;13.60;99.90;;;;;;5040342;28;20045;-81
2023/10/20 07:37:43;;;;;;;1.05;0.75;;;13.60;99.90;;;;;;5037760;28;20049;-82
2023/10/20 07:40:10;;;;;;;5.13;0.93;;;13.60;99.90;;;;;;5047171;28;20042;-83
2023/10/20 07:42:39;;;;;;;0.30;0.30;;;13.60;99.90;;;;;;5035712;28;20036;-82
2023/10/20 07:45:07;;;;;;;0.32;0.32;;;13.70;99.90;;;;;;5052969;28;20037;-83
2023/10/20 07:47:34;;;;;;;0.20;0.20;;;13.80;99.90;;;;;;5056351;28;20091;-82
2023/10/20 07:50:00;;;;;;;2.50;0.88;;;13.80;99.90;;;;;;5052250;28;20473;-85
2023/10/20 07:52:26;;;;;;;0.75;0.75;;;13.80;99.90;;;;;;5055220;28;20049;-81
2023/10/20 07:54:53;;;;;;;0.05;0.05;;;13.90;99.90;;;;;;5033425;28;20045;-84
2023/10/20 07:57:20;;;;;;;1.00;0.40;;;14.00;99.90;;;;;;5023133;28;20373;-82
2023/10/20 07:59:47;;;;;;;0.45;0.25;;;14.00;99.90;;;;;;5020252;28;20052;-82
2023/10/20 08:02:13;;;;;;;0.20;0.20;;;14.00;99.90;;;;;;5053686;28;20040;-83
2023/10/20 08:04:41;;;;;;;0.93;0.93;;;14.10;99.90;;;;;;5030253;28;20032;-76
2023/10/20 08:07:09;;;;;;;0.63;0.38;;;14.00;99.90;;;;;;5052643;28;20052;-76
2023/10/20 08:09:39;;;;;;;0.22;0.22;;;14.10;99.90;;;;;;5020395;28;20056;-75
2023/10/20 08:12:06;;;;;;;0.65;0.65;;;14.20;99.90;;;;;;5038772;28;20371;-78
2023/10/20 08:14:33;;;;;;;0.10;0.10;;;14.20;99.90;;;;;;5051531;28;20052;-76
2023/10/20 08:17:03;;;;;;;0.22;0.22;;;14.20;99.90;;;;;;5054208;28;20043;-76
2023/10/20 08:19:30;;;;;;;0.00;0.00;;;14.30;99.90;;;;;;5054213;28;20029;-75
2023/10/20 08:21:57;;;;;;;0.28;0.25;;;14.40;99.90;;;;;;5051850;28;20108;-75
2023/10/20 08:24:23;;;;;;;0.45;0.30;;;14.50;99.90;;;;;;5049069;28;20032;-76
2023/10/20 08:26:49;;;;;;;1.38;1.30;;;14.50;99.90;;;;;;5054969;28;20056;-76
2023/10/20 08:29:16;;;;;;;2.42;0.57;;;14.60;99.90;;;;;;5052860;28;20040;-76
2023/10/20 08:31:43;;;;;;;0.82;0.77;;;14.60;99.90;;;;;;5051699;28;20037;-76
2023/10/20 08:34:09;;;;;;;0.43;0.35;;;14.70;99.90;;;;;;5050904;28;20040;-73
2023/10/20 08:36:36;;;;;;;0.32;0.32;;;14.70;99.90;;;;;;5053797;28;20032;-73
2023/10/20 08:39:13;;;;;;;5.00;0.93;;;14.70;99.90;;;;;;5055181;28;20120;-76
2023/10/20 08:41:44;;;;;;;0.77;0.55;;;14.80;99.90;;;;;;5055363;28;20047;-74
2023/10/20 08:44:11;;;;;;;1.65;1.23;;;14.70;99.90;;;;;;5045446;28;20034;-74
2023/10/20 08:46:41;;;;;;;1.58;0.68;;;14.70;99.90;;;;;;5045456;28;20036;-77
2023/10/20 08:49:08;;;;;;;1.17;1.10;;;14.80;99.90;;;;;;5039077;28;20370;-75
2023/10/20 08:51:37;;;;;;;2.10;2.00;;;14.80;99.90;;;;;;5056777;28;20044;-73
2023/10/20 08:54:07;;;;;;;0.85;0.85;;;14.80;99.90;;;;;;5050028;28;20140;-77
2023/10/20 08:56:33;;;;;;;3.45;1.50;;;14.80;99.90;;;;;;5042458;28;20040;-73
2023/10/20 08:58:59;;;;;;;2.88;0.88;;;14.80;99.90;;;;;;5052706;28;20044;-75
2023/10/20 09:01:25;;;;;;;2.70;1.25;;;14.70;99.90;;;;;;5041486;28;20047;-74
2023/10/20 09:03:59;;;;;;;1.40;1.20;;;14.70;99.90;;;;;;5054672;28;20037;-74
2023/10/20 09:06:26;;;;;;;1.48;1.00;;;14.60;99.90;;;;;;5050581;28;20496;-73
2023/10/20 09:08:52;;;;;;;1.08;0.73;;;14.50;99.90;;;;;;5052885;28;20036;-75
2023/10/20 09:11:19;;;;;;;1.45;1.35;;;14.40;99.90;;;;;;5054390;28;20390;-74
2023/10/20 09:13:47;;;;;;;2.72;0.73;;;14.40;99.90;;;;;;5052815;28;20040;-75
2023/10/20 09:16:14;;;;;;;2.42;0.98;;;14.40;99.90;;;;;;5050651;28;20056;-76
2023/10/20 09:18:51;;;;;;;0.77;0.60;;;14.40;99.90;;;;;;5054380;28;20029;-74
2023/10/20 09:21:22;;;;;;;2.65;1.38;;;14.30;99.90;;;;;;5053510;28;20151;-74
2023/10/20 09:23:59;;;;;;;1.05;0.57;;;14.40;99.90;;;;;;5050115;28;20021;-76
2023/10/20 09:26:27;;;;;;;1.98;1.33;;;14.40;99.90;;;;;;5048598;28;20042;-75
2023/10/20 09:28:54;;;;;;;1.73;1.27;;;14.40;99.90;;;;;;5053736;28;20025;-74
2023/10/20 09:31:22;;;;;;;1.67;1.30;;;14.60;99.90;;;;;;5038509;28;20401;-77
2023/10/20 09:33:49;;;;;;;1.90;1.80;;;14.60;99.90;;;;;;5054860;28;20354;-74
2023/10/20 09:36:16;;;;;;;1.27;1.17;;;14.70;99.90;;;;;;5047492;28;20392;-73
2023/10/20 09:38:44;;;;;;;1.60;1.40;;;14.80;99.90;;;;;;5046902;28;20462;-73
2023/10/20 09:41:12;;;;;;;0.75;0.75;;;14.90;99.90;;;;;;5049015;28;20040;-73
2023/10/20 09:44:02;;;;;;;0.70;0.70;;;14.90;99.90;;;;;;5050968;28;20390;-73
2023/10/20 09:47:05;;;;;;;2.08;0.52;;;14.90;99.90;;;;;;5036708;28;20041;-73
2023/10/20 09:49:35;;;;;;;0.60;0.60;;;14.80;99.90;;;;;;5047835;28;20028;-73
2023/10/20 09:52:01;;;;;;;1.40;1.25;;;14.80;99.90;;;;;;5052961;28;20052;-75
2023/10/20 09:54:33;;;;;;;1.48;0.85;;;14.80;99.90;;;;;;5054645;28;20021;-74
2023/10/20 09:57:00;;;;;;;2.05;1.60;;;14.70;99.90;;;;;;5053538;28;20051;-75
2023/10/20 09:59:30;;;;;;;3.40;1.77;;;14.70;99.90;;;;;;5050391;28;20025;-74
2023/10/20 10:01:59;;;;;;;0.63;0.43;;;14.70;99.90;;;;;;5039955;28;20037;-73
2023/10/20 10:04:33;;;;;;;1.02;0.80;;;14.70;99.90;;;;;;5050665;28;20510;-74
2023/10/20 10:07:04;;;;;;;0.55;0.22;;;14.80;99.90;;;;;;5053684;28;20028;-74
2023/10/20 10:09:49;;;;;;;1.77;1.58;;;14.80;99.90;;;;;;5051850;28;20378;-74
2023/10/20 10:12:20;;;;;;;0.95;0.93;;;15.00;99.90;;;;;;5045200;28;20037;-75
2023/10/20 10:15:12;;;;;;;2.65;1.60;;;14.80;99.90;;;;;;5047015;28;20049;-74
2023/10/20 10:17:46;;;;;;;4.72;0.90;;;14.70;99.90;;;;;;5049508;28;20030;-74
2023/10/20 10:20:26;;;;;;;3.20;1.50;;;14.70;99.90;;;;;;5046113;28;20040;-75
2023/10/20 10:23:04;;;;;;;1.45;0.52;;;14.90;99.90;;;;;;5052169;28;20442;-74
2023/10/20 10:25:44;;;;;;;2.15;1.95;;;15.00;99.90;;;;;;5060371;28;20051;-74
2023/10/20 10:28:11;;;;;;;1.88;1.05;;;15.00;99.90;;;;;;5044998;28;20055;-76
2023/10/20 10:30:39;;;;;;;1.65;0.90;;;15.10;99.90;;;;;;5043135;28;20025;-74
2023/10/20 10:33:10;;;;;;;3.15;2.45;;;15.20;99.90;;;;;;5045657;28;20286;-74
2023/10/20 10:35:40;;;;;;;2.15;1.95;;;15.40;99.90;;;;;;5052634;28;20473;-74
2023/10/20 10:38:22;;;;;;;0.73;0.57;;;15.60;99.90;;;;;;5060163;28;20037;-73
2023/10/20 10:40:51;;;;;;;7.53;1.33;;;15.50;99.90;;;;;;5041557;28;20041;-73
2023/10/20 10:43:19;;;;;;;0.73;0.63;;;15.30;99.90;;;;;;5040953;28;20038;-73
2023/10/20 10:45:50;;;;;;;0.45;0.45;;;15.30;99.90;;;;;;5051453;28;20025;-74
2023/10/20 10:48:18;;;;;;;2.28;1.27;;;15.20;99.90;;;;;;5050264;28;20338;-74
2023/10/20 10:50:46;;;;;;;3.45;1.65;;;15.40;99.90;;;;;;5033589;28;20033;-74
2023/10/20 10:53:14;;;;;;;0.57;0.57;;;15.50;99.90;;;;;;5048987;28;20246;-75
2023/10/20 10:55:41;;;;;;;1.00;0.55;;;15.60;99.90;;;;;;5051046;28;20028;-74
2023/10/20 10:58:15;;;;;;;0.88;0.80;;;15.60;99.90;;;;;;5053543;28;20389;-74
2023/10/20 11:00:43;;;;;;;1.13;0.93;;;15.40;99.90;;;;;;5032487;28;20484;-75
2023/10/20 11:03:11;;;;;;;1.42;0.90;;;15.40;99.90;;;;;;5054237;28;20417;-77
2023/10/20 11:05:38;;;;;;;0.45;0.45;;;15.50;99.90;;;;;;5045006;28;20029;-76
2023/10/20 11:08:06;;;;;;;0.85;0.75;;;15.60;99.90;;;;;;5046338;28;20492;-76
2023/10/20 11:10:34;;;;;;;0.50;0.50;;;15.70;99.90;;;;;;5056791;28;20035;-76
2023/10/20 11:13:06;;;;;;;1.05;0.65;;;15.90;99.90;;;;;;5050007;28;20042;-76
2023/10/20 11:15:33;;;;;;;0.57;0.40;;;16.10;99.90;;;;;;5050107;28;20037;-77
2023/10/20 11:18:01;;;;;;;2.45;1.00;;;16.30;99.90;;;;;;5036982;28;20043;-77
2023/10/20 11:20:31;;;;;;;1.48;0.90;;;16.30;99.90;;;;;;5056221;28;20025;-78
2023/10/20 11:22:58;;;;;;;1.30;0.63;;;16.30;99.90;;;;;;5030373;28;20041;-78
2023/10/20 11:25:24;;;;;;;0.80;0.80;;;16.40;99.90;;;;;;5047844;28;20036;-77
2023/10/20 11:27:54;;;;;;;0.85;0.77;;;16.60;99.90;;;;;;5032107;28;20469;-78
2023/10/20 11:30:28;;;;;;;0.73;0.50;;;16.70;99.90;;;;;;5044254;28;20068;-79
2023/10/20 11:32:55;;;;;;;1.05;0.35;;;16.80;99.90;;;;;;5020914;28;20071;-82
2023/10/20 11:35:24;;;;;;;0.63;0.63;;;16.70;99.90;;;;;;5029431;28;20485;-79
2023/10/20 11:37:51;;;;;;;1.00;1.00;;;16.80;99.90;;;;;;5033217;28;20045;-81
2023/10/20 11:40:19;;;;;;;0.90;0.60;;;16.90;99.90;;;;;;5053288;28;20037;-82
2023/10/20 11:42:45;;;;;;;0.22;0.22;;;17.00;99.90;;;;;;5027597;28;20071;-78
2023/10/20 11:45:11;;;;;;;1.17;0.77;;;17.20;99.90;;;;;;5048294;28;20382;-78
2023/10/20 11:47:38;;;;;;;0.40;0.40;;;17.20;99.90;;;;;;5047284;28;20038;-80
2023/10/20 11:50:08;;;;;;;0.32;0.32;;;17.20;99.90;;;;;;5037848;28;20033;-83
2023/10/20 11:52:41;;;;;;;0.20;0.13;;;17.30;99.90;;;;;;5036015;28;20057;-81
2023/10/20 11:55:09;;;;;;;0.63;0.38;;;17.30;99.90;;;;;;5036495;28;20315;-78
2023/10/20 11:57:36;;;;;;;0.45;0.22;;;17.20;99.90;;;;;;5037973;28;20429;-79
2023/10/20 12:00:13;;;;;;;1.88;0.47;;;17.10;99.90;;;;;;5061400;28;20474;-79
2023/10/20 12:02:40;;;;;;;0.35;0.30;;;17.00;99.90;;;;;;5036179;28;20048;-78
2023/10/20 12:05:07;;;;;;;0.30;0.30;;;17.20;99.90;;;;;;5054396;28;20041;-78
2023/10/20 12:07:34;;;;;;;0.10;0.10;;;17.50;99.90;;;;;;5047134;28;20037;-76
2023/10/20 12:10:00;;;;;;;0.35;0.35;;;17.40;99.90;;;;;;5019774;28;20042;-77
2023/10/20 12:12:26;;;;;;;0.30;0.30;;;17.30;99.90;;;;;;5032169;28;20063;-78
2023/10/20 12:14:52;;;;;;;1.20;0.47;;;17.30;99.90;;;;;;5053410;28;20335;-77
2023/10/20 12:17:19;;;;;;;0.57;0.52;;;17.20;99.90;;;;;;5048249;28;20026;-78
2023/10/20 12:19:45;;;;;;;0.25;0.10;;;17.00;99.90;;;;;;5056652;28;20391;-75
2023/10/20 12:22:12;;;;;;;1.95;0.32;;;17.00;99.90;;;;;;5045924;28;20048;-76
2023/10/20 12:24:38;;;;;;;0.50;0.47;;;17.00;99.90;;;;;;5057357;28;20036;-75
2023/10/20 12:27:05;;;;;;;1.10;0.25;;;17.10;99.90;;;;;;5042338;28;20397;-76
2023/10/20 12:29:31;;;;;;;0.70;0.30;;;17.10;99.90;;;;;;5050144;28;20021;-75
2023/10/20 12:31:58;;;;;;;0.22;0.22;;;17.20;99.90;;;;;;5031862;28;20032;-75
2023/10/20 12:34:25;;;;;;;0.00;0.00;;;17.20;99.90;;;;;;5059529;28;20025;-77
2023/10/20 12:36:51;;;;;;;0.70;0.40;;;17.30;99.90;;;;;;5060169;28;20029;-75
2023/10/20 12:39:17;;;;;;;0.70;0.70;;;17.30;99.90;;;;;;5035537;28;20033;-75
2023/10/20 12:41:50;;;;;;;0.20;0.20;;;17.40;99.90;;;;;;5047337;28;20037;-76
2023/10/20 12:44:18;;;;;;;0.30;0.30;;;17.50;99.90;;;;;;5051923;28;20045;-76
2023/10/20 12:46:44;;;;;;;0.32;0.32;;;17.60;96.30;;;;;;5042485;28;20032;-76
2023/10/20 12:49:11;;;;;;;0.20;0.20;;;17.70;92.10;;;;;;5041513;28;20041;-75
2023/10/20 12:51:39;;;;;;;0.57;0.55;;;17.70;91.30;;;;;;5039039;28;20044;-75
2023/10/20 12:54:07;;;;;;;1.85;0.20;;;17.80;75.90;;;;;;5043367;28;20041;-75
2023/10/20 12:56:33;;;;;;;0.30;0.30;;;18.00;77.40;;;;;;5059254;28;20036;-74
2023/10/20 12:58:59;;;;;;;0.20;0.20;;;18.00;55.40;;;;;;5036463;28;20035;-75
2023/10/20 13:01:26;;;;;;;0.10;0.10;;;18.00;38.80;;;;;;5055450;28;20405;-75
2023/10/20 13:03:52;;;;;;;0.98;0.73;;;18.00;34.10;;;;;;5046101;28;20471;-74
2023/10/20 13:06:19;;;;;;;3.40;0.63;;;18.00;48.90;;;;;;5054874;28;20565;-75
2023/10/20 13:08:46;;;;;;;1.65;0.30;;;18.10;41.80;;;;;;5029045;28;20042;-74
2023/10/20 13:11:13;;;;;;;1.08;0.82;;;18.10;25.60;;;;;;5035336;28;20046;-74
2023/10/20 13:13:40;;;;;;;0.10;0.10;;;18.20;29.70;;;;;;5056502;28;20032;-84
2023/10/20 13:16:06;;;;;;;0.70;0.70;;;18.20;13.80;;;;;;5036521;28;20032;-82
2023/10/20 13:18:33;;;;;;;0.55;0.55;;;18.10;18.40;;;;;;5020054;28;20390;-84
2023/10/20 13:21:05;;;;;;;0.03;0.03;;;17.90;15.00;;;;;;5022808;28;20041;-83
2023/10/20 13:23:34;;;;;;;0.10;0.10;;;17.80;20.80;;;;;;5038734;28;20053;-84